Time;durP1;ratioP1;P1;durP2;ratioP2;P2;SDS_P1;SDS_P2;PMS_P1;PMS_P2;Temp;Humidity;BMP_temperature;BMP_pressure;BME280_temperature;BME280_humidity;BME280_pressure;Samples;Min_cycle;Max_cycle;Signal;HPM_P1;HPM_P2
2024/01/13 00:00:04;;;;;;;1999.90;999.90;;;3.10;99.90;;;;;;4911717;29;20075;-72
2024/01/13 00:02:29;;;;;;;1999.90;999.90;;;3.10;99.90;;;;;;4933444;28;20439;-69
2024/01/13 00:04:55;;;;;;;1999.90;999.90;;;3.10;99.90;;;;;;5026104;28;20047;-72
2024/01/13 00:07:21;;;;;;;1999.90;999.90;;;3.10;99.90;;;;;;5091556;28;20031;-72
2024/01/13 00:09:46;;;;;;;1999.90;999.90;;;3.10;99.90;;;;;;5090287;28;20039;-69
2024/01/13 00:12:12;;;;;;;1999.90;999.90;;;3.10;99.90;;;;;;5089348;28;20035;-72
2024/01/13 00:14:38;;;;;;;1999.90;999.90;;;3.10;99.90;;;;;;5091745;28;20326;-72
2024/01/13 00:17:03;;;;;;;1999.90;999.90;;;3.10;99.90;;;;;;5085407;28;20296;-68
2024/01/13 00:19:30;;;;;;;1999.90;999.90;;;3.10;99.90;;;;;;5091632;28;20292;-72
2024/01/13 00:21:56;;;;;;;1999.90;999.90;;;3.10;99.90;;;;;;5087634;28;20044;-72
2024/01/13 00:24:22;;;;;;;1999.90;999.90;;;3.10;99.90;;;;;;5084886;28;24289;-72
2024/01/13 00:26:48;;;;;;;1999.90;999.90;;;3.10;99.90;;;;;;5084755;28;20044;-68
2024/01/13 00:29:13;;;;;;;1999.90;999.90;;;3.10;99.90;;;;;;5081286;28;20311;-72
2024/01/13 00:31:39;;;;;;;1999.90;999.90;;;3.10;99.90;;;;;;5069581;28;20355;-72
2024/01/13 00:34:05;;;;;;;1999.90;999.90;;;3.20;99.90;;;;;;5070112;28;20032;-68
2024/01/13 00:36:30;;;;;;;1999.90;999.90;;;3.10;99.90;;;;;;5071884;28;20028;-68
2024/01/13 00:38:56;;;;;;;1999.90;999.90;;;3.10;99.90;;;;;;5066233;28;20369;-72
2024/01/13 00:41:22;;;;;;;1999.90;999.90;;;3.20;99.90;;;;;;5068726;28;20028;-68
2024/01/13 00:43:47;;;;;;;1999.90;999.90;;;3.30;99.90;;;;;;5067239;28;20078;-71
2024/01/13 00:46:13;;;;;;;1999.90;999.90;;;3.20;99.90;;;;;;5067535;28;20075;-68
2024/01/13 00:48:39;;;;;;;1999.90;999.90;;;3.20;99.90;;;;;;5066312;28;20028;-72
2024/01/13 00:51:07;;;;;;;1999.90;999.90;;;3.20;99.90;;;;;;5069184;28;20090;-72
2024/01/13 00:53:33;;;;;;;1999.90;999.90;;;3.20;99.90;;;;;;5066679;28;20043;-72
2024/01/13 00:56:01;;;;;;;1999.90;999.90;;;3.10;99.90;;;;;;5070859;28;20028;-72
2024/01/13 00:58:27;;;;;;;1999.90;999.90;;;3.20;99.90;;;;;;5063620;28;20331;-72
2024/01/13 01:00:52;;;;;;;1999.90;999.90;;;3.20;99.90;;;;;;5071288;28;20032;-69
2024/01/13 01:03:18;;;;;;;1999.90;999.90;;;3.20;99.90;;;;;;5061365;28;20032;-71
2024/01/13 01:05:44;;;;;;;1999.90;999.90;;;3.20;99.90;;;;;;5070311;28;20040;-72
2024/01/13 01:08:09;;;;;;;1999.90;999.90;;;3.10;99.90;;;;;;5065637;28;20033;-72
2024/01/13 01:10:35;;;;;;;1999.90;999.90;;;3.10;99.90;;;;;;5067224;28;20028;-72
2024/01/13 01:13:00;;;;;;;1999.90;999.90;;;3.10;99.90;;;;;;5067063;28;20025;-72
2024/01/13 01:15:26;;;;;;;1999.90;999.90;;;3.10;99.90;;;;;;5074223;28;20111;-72
2024/01/13 01:17:52;;;;;;;1999.90;999.90;;;3.00;99.90;;;;;;5066641;28;20037;-69
2024/01/13 01:20:19;;;;;;;1999.90;999.90;;;3.00;99.90;;;;;;5064400;28;20020;-70
2024/01/13 01:22:46;;;;;;;1999.90;999.90;;;3.00;99.90;;;;;;5056320;28;20029;-72
2024/01/13 01:25:12;;;;;;;1999.90;999.90;;;3.00;99.90;;;;;;5073284;28;20322;-72
2024/01/13 01:27:37;;;;;;;1999.90;999.90;;;3.00;99.90;;;;;;5070122;28;20037;-69
2024/01/13 01:30:04;;;;;;;1999.90;999.90;;;3.00;99.90;;;;;;5064587;28;20024;-69
2024/01/13 01:32:29;;;;;;;1999.90;999.90;;;3.00;99.90;;;;;;5090580;28;20051;-70
2024/01/13 01:34:55;;;;;;;1999.90;999.90;;;3.00;99.90;;;;;;5076189;28;20024;-69
2024/01/13 01:37:21;;;;;;;1999.90;999.90;;;3.00;99.90;;;;;;5093107;28;20112;-68
2024/01/13 01:39:47;;;;;;;1999.90;999.90;;;3.00;99.90;;;;;;5075513;28;20410;-72
2024/01/13 01:42:12;;;;;;;1999.90;999.90;;;3.00;99.90;;;;;;5091200;28;20431;-72
2024/01/13 01:44:38;;;;;;;1999.90;999.90;;;3.10;99.90;;;;;;5092632;28;20028;-70
2024/01/13 01:47:06;;;;;;;1999.90;999.90;;;3.00;99.90;;;;;;5094563;28;20032;-72
2024/01/13 01:49:31;;;;;;;1999.90;999.90;;;3.00;99.90;;;;;;5089861;28;20024;-72
2024/01/13 01:51:57;;;;;;;1999.90;999.90;;;2.90;99.90;;;;;;5094302;28;20032;-72
2024/01/13 01:54:23;;;;;;;1999.90;999.90;;;2.90;99.90;;;;;;5093073;28;20103;-72
2024/01/13 01:56:49;;;;;;;1999.90;999.90;;;2.80;99.90;;;;;;5094615;28;20046;-72
2024/01/13 01:59:15;;;;;;;1999.90;999.90;;;2.80;99.90;;;;;;5085905;28;20269;-72
2024/01/13 02:01:41;;;;;;;1999.90;999.90;;;2.80;99.90;;;;;;5093781;28;20024;-69
2024/01/13 02:04:07;;;;;;;1999.90;999.90;;;2.90;99.90;;;;;;5087287;28;20118;-72
2024/01/13 02:06:33;;;;;;;1999.90;999.90;;;2.90;99.90;;;;;;5087600;28;20791;-72
2024/01/13 02:09:00;;;;;;;1999.90;999.90;;;2.90;99.90;;;;;;5082542;28;20028;-69
2024/01/13 02:11:25;;;;;;;1999.90;999.90;;;2.90;99.90;;;;;;5089205;28;20077;-72
2024/01/13 02:13:51;;;;;;;1999.90;999.90;;;3.00;99.90;;;;;;5093419;28;20032;-69
2024/01/13 02:16:17;;;;;;;1999.90;999.90;;;3.00;99.90;;;;;;5093464;28;20067;-69
2024/01/13 02:18:43;;;;;;;1999.90;999.90;;;3.10;99.90;;;;;;5086933;28;20051;-72
2024/01/13 02:21:13;;;;;;;1999.90;999.90;;;3.10;99.90;;;;;;5094190;28;20449;-70
2024/01/13 02:23:38;;;;;;;1999.90;999.90;;;3.10;99.90;;;;;;5075258;28;20032;-72
2024/01/13 02:26:05;;;;;;;1999.90;999.90;;;3.10;99.90;;;;;;5092463;28;20032;-72
2024/01/13 02:28:30;;;;;;;1999.90;999.90;;;3.10;99.90;;;;;;5093490;28;20028;-72
2024/01/13 02:30:56;;;;;;;1999.90;999.90;;;3.10;99.90;;;;;;5092673;28;20039;-69
2024/01/13 02:33:23;;;;;;;1999.90;999.90;;;3.10;99.90;;;;;;5092910;28;20024;-72
2024/01/13 02:35:48;;;;;;;1999.90;999.90;;;3.00;99.90;;;;;;5093239;28;20434;-72
2024/01/13 02:38:14;;;;;;;1999.90;999.90;;;3.10;99.90;;;;;;5092966;28;20047;-69
2024/01/13 02:40:40;;;;;;;1999.90;999.90;;;3.00;99.90;;;;;;5092099;28;20055;-72
2024/01/13 02:43:05;;;;;;;1999.90;999.90;;;2.90;99.90;;;;;;5087274;28;20043;-72
2024/01/13 02:45:31;;;;;;;1999.90;999.90;;;2.90;99.90;;;;;;5089261;28;20027;-73
2024/01/13 02:48:14;;;;;;;1999.90;999.90;;;2.80;99.90;;;;;;5074387;28;20060;-69
2024/01/13 02:50:40;;;;;;;1999.90;999.90;;;2.90;99.90;;;;;;5074993;28;20422;-72
2024/01/13 02:53:06;;;;;;;1999.90;999.90;;;2.80;99.90;;;;;;5089063;28;20116;-72
2024/01/13 02:55:34;;;;;;;1999.90;999.90;;;2.80;99.90;;;;;;5090801;28;20703;-72
2024/01/13 02:58:00;;;;;;;1999.90;999.90;;;2.80;99.90;;;;;;5074146;28;20031;-72
2024/01/13 03:00:25;;;;;;;1999.90;999.90;;;2.80;99.90;;;;;;5093446;28;20032;-72
2024/01/13 03:02:51;;;;;;;1999.90;999.90;;;2.80;99.90;;;;;;5092138;28;20032;-68
2024/01/13 03:05:17;;;;;;;1999.90;999.90;;;2.90;99.90;;;;;;5092861;28;20042;-73
2024/01/13 03:07:42;;;;;;;1999.90;999.90;;;3.00;99.90;;;;;;5092443;28;20024;-69
2024/01/13 03:10:08;;;;;;;1999.90;999.90;;;3.00;99.90;;;;;;5091675;28;20020;-72
2024/01/13 03:12:34;;;;;;;1999.90;999.90;;;3.10;99.90;;;;;;5093563;28;20024;-72
2024/01/13 03:15:02;;;;;;;1999.90;999.90;;;3.10;99.90;;;;;;5084650;28;20459;-69
2024/01/13 03:17:27;;;;;;;1999.90;999.90;;;3.10;99.90;;;;;;5092388;28;20031;-69
2024/01/13 03:19:53;;;;;;;1999.90;999.90;;;3.10;99.90;;;;;;5091654;28;20016;-72
2024/01/13 03:22:19;;;;;;;1999.90;999.90;;;3.10;99.90;;;;;;5084203;28;20078;-69
2024/01/13 03:24:44;;;;;;;1999.90;999.90;;;3.10;99.90;;;;;;5087431;28;20103;-73
2024/01/13 03:27:10;;;;;;;1999.90;999.90;;;3.20;99.90;;;;;;5075930;28;20318;-69
2024/01/13 03:29:36;;;;;;;1999.90;999.90;;;3.20;99.90;;;;;;5082553;28;20024;-72
2024/01/13 03:32:01;;;;;;;1999.90;999.90;;;3.20;99.90;;;;;;5082828;28;20059;-69
2024/01/13 03:34:27;;;;;;;1999.90;999.90;;;3.20;99.90;;;;;;5089298;28;20090;-70
2024/01/13 03:36:53;;;;;;;1999.90;999.90;;;3.20;99.90;;;;;;5092797;28;20020;-73
2024/01/13 03:39:18;;;;;;;1999.90;999.90;;;3.20;99.90;;;;;;5081062;28;20094;-73
2024/01/13 03:41:44;;;;;;;1999.90;999.90;;;3.30;99.90;;;;;;5087238;28;20092;-70
2024/01/13 03:44:10;;;;;;;1999.90;999.90;;;3.20;99.90;;;;;;5092117;28;20379;-72
2024/01/13 03:46:35;;;;;;;1999.90;999.90;;;3.30;99.90;;;;;;5091613;28;20038;-71
2024/01/13 03:49:01;;;;;;;1999.90;999.90;;;3.30;99.90;;;;;;5047677;28;20323;-72
2024/01/13 03:51:27;;;;;;;1999.90;999.90;;;3.30;99.90;;;;;;5092328;28;20062;-72
2024/01/13 03:53:53;;;;;;;1999.90;999.90;;;3.30;99.90;;;;;;5084344;28;20031;-72
2024/01/13 03:56:18;;;;;;;1999.90;999.90;;;3.40;99.90;;;;;;5077311;28;20031;-72
2024/01/13 03:58:44;;;;;;;1999.90;999.90;;;3.40;99.90;;;;;;5068107;28;20415;-72
2024/01/13 04:01:10;;;;;;;1999.90;999.90;;;3.40;99.90;;;;;;5090430;28;20039;-72
2024/01/13 04:03:36;;;;;;;1999.90;999.90;;;3.40;99.90;;;;;;5088111;28;20036;-72
2024/01/13 04:06:03;;;;;;;1999.90;999.90;;;3.40;99.90;;;;;;5089524;28;20036;-72
2024/01/13 04:08:28;;;;;;;1999.90;999.90;;;3.40;99.90;;;;;;5089123;28;20035;-72
2024/01/13 04:10:54;;;;;;;1999.90;999.90;;;3.30;99.90;;;;;;5091434;28;20035;-70
2024/01/13 04:13:19;;;;;;;1999.90;999.90;;;3.30;99.90;;;;;;5076316;28;20030;-72
2024/01/13 04:15:45;;;;;;;1999.90;999.90;;;3.30;99.90;;;;;;5065478;28;20024;-72
2024/01/13 04:18:11;;;;;;;1999.90;999.90;;;3.20;99.90;;;;;;5091707;28;20028;-69
2024/01/13 04:20:37;;;;;;;1999.90;999.90;;;3.20;99.90;;;;;;5083874;28;20039;-72
2024/01/13 04:23:02;;;;;;;1999.90;999.90;;;3.20;99.90;;;;;;5091377;28;20501;-69
2024/01/13 04:25:28;;;;;;;1999.90;999.90;;;3.10;99.90;;;;;;5072429;28;20118;-72
2024/01/13 04:27:54;;;;;;;1999.90;999.90;;;3.10;99.90;;;;;;5091003;28;20031;-69
2024/01/13 04:30:20;;;;;;;1999.90;999.90;;;3.10;99.90;;;;;;5087300;28;20492;-69
2024/01/13 04:32:46;;;;;;;1999.90;999.90;;;3.10;99.90;;;;;;5071161;28;20048;-72
2024/01/13 04:35:12;;;;;;;1999.90;999.90;;;3.10;99.90;;;;;;5087919;28;20324;-72
2024/01/13 04:37:39;;;;;;;1999.90;999.90;;;3.00;99.90;;;;;;5073786;28;20407;-72
2024/01/13 04:40:05;;;;;;;1999.90;999.90;;;3.10;99.90;;;;;;5080754;28;20711;-72
2024/01/13 04:42:34;;;;;;;1999.90;999.90;;;3.20;99.90;;;;;;5088466;28;20039;-72
2024/01/13 04:45:00;;;;;;;1999.90;999.90;;;3.20;99.90;;;;;;5091885;28;20048;-72
2024/01/13 04:47:26;;;;;;;1999.90;999.90;;;3.10;99.90;;;;;;5095579;28;20475;-70
2024/01/13 04:49:51;;;;;;;1999.90;999.90;;;3.20;99.90;;;;;;5092491;28;20055;-70
2024/01/13 04:52:17;;;;;;;1999.90;999.90;;;3.20;99.90;;;;;;5092475;28;20044;-72
2024/01/13 04:54:43;;;;;;;1999.90;999.90;;;3.30;99.90;;;;;;5074842;28;20078;-72
2024/01/13 04:57:10;;;;;;;1999.90;999.90;;;3.30;99.90;;;;;;5092434;28;20063;-71
2024/01/13 04:59:36;;;;;;;1999.90;999.90;;;3.30;99.90;;;;;;5090673;28;20086;-69
2024/01/13 05:02:01;;;;;;;1999.90;999.90;;;3.20;99.90;;;;;;5088542;28;20020;-72
2024/01/13 05:04:27;;;;;;;1999.90;999.90;;;3.30;99.90;;;;;;5089539;28;20047;-72
2024/01/13 05:06:53;;;;;;;1999.90;999.90;;;3.30;99.90;;;;;;5095325;28;20024;-70
2024/01/13 05:09:19;;;;;;;1999.90;999.90;;;3.30;99.90;;;;;;5092116;28;20375;-72
2024/01/13 05:11:45;;;;;;;1999.90;999.90;;;3.40;99.90;;;;;;5075297;28;20020;-72
2024/01/13 05:14:10;;;;;;;1999.90;999.90;;;3.50;99.90;;;;;;5094976;28;20073;-68
2024/01/13 05:16:36;;;;;;;1999.90;999.90;;;3.40;99.90;;;;;;5094792;28;20107;-70
2024/01/13 05:19:02;;;;;;;1999.90;999.90;;;3.40;99.90;;;;;;5095036;28;20539;-70
2024/01/13 05:21:28;;;;;;;1999.90;999.90;;;3.40;99.90;;;;;;5093718;28;20149;-70
2024/01/13 05:23:54;;;;;;;1999.90;999.90;;;3.40;99.90;;;;;;5092505;28;20103;-70
2024/01/13 05:26:19;;;;;;;1999.90;999.90;;;3.40;99.90;;;;;;5077169;28;20169;-70
2024/01/13 05:28:45;;;;;;;1999.90;999.90;;;3.40;99.90;;;;;;5090751;28;20025;-70
2024/01/13 05:31:11;;;;;;;1999.90;999.90;;;3.40;99.90;;;;;;5083500;28;20040;-68
2024/01/13 05:33:36;;;;;;;1999.90;999.90;;;3.40;99.90;;;;;;5093269;28;20040;-70
2024/01/13 05:36:02;;;;;;;1999.90;999.90;;;3.40;99.90;;;;;;5093976;28;20027;-67
2024/01/13 05:38:28;;;;;;;1999.90;999.90;;;3.50;99.90;;;;;;5090934;28;20048;-70
2024/01/13 05:40:54;;;;;;;1999.90;999.90;;;3.50;99.90;;;;;;5083368;28;20055;-70
2024/01/13 05:43:19;;;;;;;1999.90;999.90;;;3.60;99.90;;;;;;5094477;28;20109;-70
2024/01/13 05:45:45;;;;;;;1999.90;999.90;;;3.70;99.90;;;;;;5093589;28;20024;-70
2024/01/13 05:48:11;;;;;;;1999.90;999.90;;;3.70;99.90;;;;;;5092906;28;20027;-70
2024/01/13 05:50:37;;;;;;;1999.90;999.90;;;3.70;99.90;;;;;;5094083;28;20030;-70
2024/01/13 05:53:03;;;;;;;1999.90;999.90;;;3.60;99.90;;;;;;5088362;28;20027;-69
2024/01/13 05:55:28;;;;;;;1999.90;999.90;;;3.60;99.90;;;;;;5086679;28;20150;-67
2024/01/13 05:57:54;;;;;;;1999.90;999.90;;;3.50;99.90;;;;;;5093724;28;20016;-70
2024/01/13 06:00:20;;;;;;;1999.90;999.90;;;3.50;99.90;;;;;;5092155;28;20490;-70
2024/01/13 06:02:46;;;;;;;1999.90;999.90;;;3.50;99.90;;;;;;5094168;28;20031;-70
2024/01/13 06:05:11;;;;;;;1999.90;999.90;;;3.50;99.90;;;;;;5077906;28;20036;-70
2024/01/13 06:07:37;;;;;;;1999.90;999.90;;;3.50;99.90;;;;;;5089820;28;20110;-67
2024/01/13 06:10:04;;;;;;;1999.90;999.90;;;3.40;99.90;;;;;;5094097;28;20028;-70
2024/01/13 06:12:30;;;;;;;1999.90;999.90;;;3.40;99.90;;;;;;5093463;28;20027;-70
2024/01/13 06:14:55;;;;;;;1999.90;999.90;;;3.50;99.90;;;;;;5093721;28;20024;-67
2024/01/13 06:17:21;;;;;;;1999.90;999.90;;;3.50;99.90;;;;;;5093771;28;20032;-69
2024/01/13 06:19:48;;;;;;;1999.90;999.90;;;3.50;99.90;;;;;;5088717;28;20064;-70
2024/01/13 06:22:14;;;;;;;1999.90;999.90;;;3.60;99.90;;;;;;5087174;28;20028;-67
2024/01/13 06:24:39;;;;;;;1999.90;999.90;;;3.60;99.90;;;;;;5068971;28;20031;-68
2024/01/13 06:27:05;;;;;;;1999.90;999.90;;;3.60;99.90;;;;;;5092892;28;20055;-68
2024/01/13 06:29:31;;;;;;;1999.90;999.90;;;3.60;99.90;;;;;;5090804;28;20103;-70
2024/01/13 06:31:57;;;;;;;1999.90;999.90;;;3.60;99.90;;;;;;5087651;28;20083;-70
2024/01/13 06:34:22;;;;;;;1999.90;999.90;;;3.70;99.90;;;;;;5091754;28;20060;-70
2024/01/13 06:36:48;;;;;;;1999.90;999.90;;;3.70;99.90;;;;;;5067057;28;20031;-69
2024/01/13 06:39:14;;;;;;;1999.90;999.90;;;3.80;99.90;;;;;;5083805;28;20024;-70
2024/01/13 06:41:40;;;;;;;1999.90;999.90;;;3.90;99.90;;;;;;5066868;28;20464;-69
2024/01/13 06:44:05;;;;;;;1999.90;999.90;;;3.80;99.90;;;;;;5092622;28;20119;-69
2024/01/13 06:46:31;;;;;;;1999.90;999.90;;;3.90;99.90;;;;;;5082599;28;20122;-69
2024/01/13 06:48:57;;;;;;;1999.90;999.90;;;3.90;99.90;;;;;;5093055;28;20032;-70
2024/01/13 06:51:23;;;;;;;1999.90;999.90;;;3.90;99.90;;;;;;5092857;28;20024;-69
2024/01/13 06:53:48;;;;;;;1999.90;999.90;;;4.00;99.90;;;;;;5074518;28;20059;-68
2024/01/13 06:56:14;;;;;;;1999.90;999.90;;;3.90;99.90;;;;;;5092682;28;20024;-70
2024/01/13 06:58:40;;;;;;;1999.90;999.90;;;3.90;99.90;;;;;;5093236;28;20063;-70
2024/01/13 07:01:06;;;;;;;1999.90;999.90;;;3.80;99.90;;;;;;5062065;28;20033;-70
2024/01/13 07:03:32;;;;;;;1999.90;999.90;;;3.70;99.90;;;;;;5081938;28;20085;-70
2024/01/13 07:05:58;;;;;;;1999.90;999.90;;;3.70;99.90;;;;;;5079531;28;20033;-70
2024/01/13 07:08:24;;;;;;;1999.90;999.90;;;3.70;99.90;;;;;;5091603;28;20492;-70
2024/01/13 07:10:51;;;;;;;1999.90;999.90;;;3.80;99.90;;;;;;5084229;28;20055;-69
2024/01/13 07:13:17;;;;;;;1999.90;999.90;;;3.80;99.90;;;;;;5092191;28;20099;-70
2024/01/13 07:15:43;;;;;;;1999.90;999.90;;;3.90;99.90;;;;;;5092767;28;20077;-69
2024/01/13 07:18:09;;;;;;;1999.90;999.90;;;3.90;99.90;;;;;;5092458;28;20032;-68
2024/01/13 07:20:34;;;;;;;1999.90;999.90;;;4.00;99.90;;;;;;5092488;28;20035;-69
2024/01/13 07:23:00;;;;;;;1999.90;999.90;;;4.00;99.90;;;;;;5092764;28;20058;-67
2024/01/13 07:25:27;;;;;;;1999.90;999.90;;;4.00;99.90;;;;;;5087145;28;20056;-69
2024/01/13 07:27:52;;;;;;;1999.90;999.90;;;4.00;99.90;;;;;;5085911;28;20107;-69
2024/01/13 07:30:18;;;;;;;1999.90;999.90;;;4.10;99.90;;;;;;5084793;28;20115;-69
2024/01/13 07:32:45;;;;;;;1999.90;999.90;;;4.00;99.90;;;;;;5074628;28;20130;-69
2024/01/13 07:35:11;;;;;;;1999.90;999.90;;;4.00;99.90;;;;;;5086992;28;20035;-69
2024/01/13 07:37:37;;;;;;;1999.90;999.90;;;4.00;99.90;;;;;;5085261;28;20032;-70
2024/01/13 07:40:03;;;;;;;1999.90;999.90;;;4.00;99.90;;;;;;5085621;28;20031;-70
2024/01/13 07:42:28;;;;;;;1999.90;999.90;;;4.00;99.90;;;;;;5091074;28;20061;-68
2024/01/13 07:44:54;;;;;;;1999.90;999.90;;;4.10;99.90;;;;;;5081420;28;20089;-69
2024/01/13 07:47:20;;;;;;;1999.90;999.90;;;4.10;99.90;;;;;;5072570;28;20486;-68
2024/01/13 07:49:45;;;;;;;1999.90;999.90;;;4.20;99.90;;;;;;5085159;28;20488;-69
2024/01/13 07:52:11;;;;;;;1999.90;999.90;;;4.20;99.90;;;;;;5092358;28;20058;-67
2024/01/13 07:54:37;;;;;;;1999.90;999.90;;;4.20;99.90;;;;;;5091904;28;20032;-69
2024/01/13 07:57:03;;;;;;;1999.90;999.90;;;4.20;99.90;;;;;;5077156;28;20028;-69
2024/01/13 07:59:28;;;;;;;1999.90;999.90;;;4.20;99.90;;;;;;5087954;28;20032;-69
2024/01/13 08:01:54;;;;;;;1999.90;999.90;;;4.20;99.90;;;;;;5090173;28;20330;-69
2024/01/13 08:04:20;;;;;;;1999.90;999.90;;;4.20;99.90;;;;;;5091514;28;20092;-69
2024/01/13 08:06:46;;;;;;;1999.90;999.90;;;4.20;99.90;;;;;;5088870;28;20669;-70
2024/01/13 08:09:12;;;;;;;1999.90;999.90;;;4.20;99.90;;;;;;5084302;28;20023;-69
2024/01/13 08:11:38;;;;;;;1999.90;999.90;;;4.20;99.90;;;;;;5090785;28;20028;-68
2024/01/13 08:14:03;;;;;;;1999.90;999.90;;;4.20;99.90;;;;;;5087047;28;20027;-68
2024/01/13 08:16:29;;;;;;;1999.90;999.90;;;4.10;99.90;;;;;;5081660;28;20322;-69
2024/01/13 08:18:55;;;;;;;1999.90;999.90;;;4.10;99.90;;;;;;5093355;28;20047;-69
2024/01/13 08:21:21;;;;;;;1999.90;999.90;;;4.10;99.90;;;;;;5078505;28;20055;-69
2024/01/13 08:23:47;;;;;;;1999.90;999.90;;;4.10;99.90;;;;;;5088400;28;20043;-70
2024/01/13 08:26:12;;;;;;;1999.90;999.90;;;4.10;99.90;;;;;;5077976;28;20131;-68
2024/01/13 08:28:38;;;;;;;1999.90;999.90;;;4.10;99.90;;;;;;5091043;28;20020;-68
2024/01/13 08:31:04;;;;;;;1999.90;999.90;;;4.10;99.90;;;;;;5076274;28;20457;-69
2024/01/13 08:33:29;;;;;;;1999.90;999.90;;;4.10;99.90;;;;;;5092608;28;20025;-69
2024/01/13 08:35:55;;;;;;;1999.90;999.90;;;4.00;99.90;;;;;;5087328;28;20032;-68
2024/01/13 08:38:21;;;;;;;1999.90;999.90;;;4.00;99.90;;;;;;5090661;28;20094;-69
2024/01/13 08:40:46;;;;;;;1999.90;999.90;;;4.00;99.90;;;;;;5091277;28;20229;-70
2024/01/13 08:43:13;;;;;;;1999.90;999.90;;;4.00;99.90;;;;;;5095496;28;20028;-69
2024/01/13 08:45:38;;;;;;;1999.90;999.90;;;4.00;99.90;;;;;;5093455;28;20032;-70
2024/01/13 08:48:05;;;;;;;1999.90;999.90;;;4.00;99.90;;;;;;5095815;28;20024;-69
2024/01/13 08:50:34;;;;;;;1999.90;999.90;;;4.00;99.90;;;;;;5092524;28;20021;-67
2024/01/13 08:53:00;;;;;;;1999.90;999.90;;;4.00;99.90;;;;;;5094153;28;20055;-70
2024/01/13 08:55:25;;;;;;;1999.90;999.90;;;4.00;99.90;;;;;;5094243;28;20058;-69
2024/01/13 08:57:51;;;;;;;1999.90;999.90;;;4.00;99.90;;;;;;5073965;28;20044;-68
2024/01/13 09:00:18;;;;;;;1999.90;999.90;;;4.00;99.90;;;;;;5077279;28;20035;-70
2024/01/13 09:02:44;;;;;;;1999.90;999.90;;;3.90;99.90;;;;;;5088440;28;20035;-69
2024/01/13 09:05:10;;;;;;;1999.90;999.90;;;3.90;99.90;;;;;;5085686;28;20522;-69
2024/01/13 09:07:37;;;;;;;1999.90;999.90;;;3.90;99.90;;;;;;5095291;28;20035;-68
2024/01/13 09:10:03;;;;;;;1999.90;999.90;;;3.90;99.90;;;;;;5068907;28;20024;-67
2024/01/13 09:12:29;;;;;;;1999.90;999.90;;;4.00;99.90;;;;;;5085397;28;20095;-68
2024/01/13 09:14:55;;;;;;;1999.90;999.90;;;4.00;99.90;;;;;;5094587;28;20151;-69
2024/01/13 09:17:20;;;;;;;1999.90;999.90;;;4.10;99.90;;;;;;5091705;28;20051;-68
2024/01/13 09:19:46;;;;;;;1999.90;999.90;;;4.10;99.90;;;;;;5089085;28;20063;-69
2024/01/13 09:22:12;;;;;;;1999.90;999.90;;;4.10;99.90;;;;;;5087282;28;20043;-67
2024/01/13 09:24:37;;;;;;;1999.90;999.90;;;4.10;99.90;;;;;;5087186;28;20190;-69
2024/01/13 09:27:04;;;;;;;1999.90;999.90;;;4.10;99.90;;;;;;5086994;28;20020;-67
2024/01/13 09:29:29;;;;;;;1999.90;999.90;;;4.10;99.90;;;;;;5090300;28;20035;-69
2024/01/13 09:31:55;;;;;;;1999.90;999.90;;;4.10;99.90;;;;;;5078631;28;20044;-69
2024/01/13 09:34:21;;;;;;;1999.90;999.90;;;4.10;99.90;;;;;;5093964;28;20027;-69
2024/01/13 09:36:47;;;;;;;1999.90;999.90;;;4.00;99.90;;;;;;5090940;28;20400;-69
2024/01/13 09:39:14;;;;;;;1999.90;999.90;;;4.00;99.90;;;;;;5087064;28;20130;-69
2024/01/13 09:41:45;;;;;;;1999.90;999.90;;;4.10;99.90;;;;;;5064974;28;20084;-69
2024/01/13 09:44:25;;;;;;;1999.90;999.90;;;4.10;99.90;;;;;;5093514;28;20180;-69
2024/01/13 09:46:52;;;;;;;1999.90;999.90;;;4.10;99.90;;;;;;5082738;28;20032;-68
2024/01/13 09:49:20;;;;;;;1999.90;999.90;;;4.00;99.90;;;;;;5094412;28;20020;-69
2024/01/13 09:51:47;;;;;;;1999.90;999.90;;;4.00;99.90;;;;;;5093626;28;20446;-69
2024/01/13 09:54:23;;;;;;;1999.90;999.90;;;4.00;99.90;;;;;;5092472;28;20028;-69
2024/01/13 09:56:49;;;;;;;1999.90;999.90;;;4.00;99.90;;;;;;5076587;28;20036;-69
2024/01/13 09:59:16;;;;;;;1999.90;999.90;;;4.00;99.90;;;;;;5092414;28;20024;-68
2024/01/13 10:01:42;;;;;;;1999.90;999.90;;;4.00;99.90;;;;;;5091486;28;20108;-69
2024/01/13 10:04:09;;;;;;;1999.90;999.90;;;4.00;99.90;;;;;;5093559;28;20039;-69
2024/01/13 10:06:35;;;;;;;1999.90;999.90;;;4.00;99.90;;;;;;5069208;28;20028;-69
2024/01/13 10:09:02;;;;;;;1999.90;999.90;;;4.00;99.90;;;;;;5088695;28;20089;-69
2024/01/13 10:11:28;;;;;;;1999.90;999.90;;;4.10;99.90;;;;;;5074372;28;20054;-69
2024/01/13 10:14:04;;;;;;;1999.90;999.90;;;4.10;99.90;;;;;;5091178;28;20415;-67
2024/01/13 10:16:32;;;;;;;1999.90;999.90;;;4.10;99.90;;;;;;5089889;28;20268;-70
2024/01/13 10:19:05;;;;;;;1999.90;999.90;;;4.10;99.90;;;;;;5093393;28;20032;-67
2024/01/13 10:21:31;;;;;;;1999.90;999.90;;;4.10;99.90;;;;;;5088630;28;20340;-69
2024/01/13 10:23:59;;;;;;;1999.90;999.90;;;4.10;99.90;;;;;;5076150;28;20121;-69
2024/01/13 10:26:25;;;;;;;1999.90;999.90;;;4.10;99.90;;;;;;5080870;28;20032;-69
2024/01/13 10:28:51;;;;;;;1999.90;999.90;;;4.10;99.90;;;;;;5067722;28;20028;-67
2024/01/13 10:31:18;;;;;;;1999.90;999.90;;;4.10;99.90;;;;;;5082075;28;20036;-69
2024/01/13 10:33:48;;;;;;;1999.90;999.90;;;4.10;99.90;;;;;;5086336;28;20027;-69
2024/01/13 10:36:22;;;;;;;1999.90;999.90;;;4.10;99.90;;;;;;5067707;28;20044;-69
2024/01/13 10:38:48;;;;;;;1999.90;999.90;;;4.10;99.90;;;;;;5091034;28;20055;-69
2024/01/13 10:41:13;;;;;;;1999.90;999.90;;;4.00;99.90;;;;;;5079772;28;21277;-69
2024/01/13 10:43:46;;;;;;;1999.90;999.90;;;4.00;99.90;;;;;;5093363;28;20031;-69
2024/01/13 10:46:13;;;;;;;1999.90;999.90;;;4.00;99.90;;;;;;5085375;28;20028;-69
2024/01/13 10:48:45;;;;;;;1999.90;999.90;;;4.00;99.90;;;;;;5092404;28;20319;-70
2024/01/13 10:51:42;;;;;;;1999.90;999.90;;;4.00;99.90;;;;;;5092061;28;20035;-69
2024/01/13 10:54:08;;;;;;;1999.90;999.90;;;4.00;99.90;;;;;;5070136;28;20051;-69
2024/01/13 10:56:38;;;;;;;1999.90;999.90;;;4.00;99.90;;;;;;5093431;28;20060;-69
2024/01/13 10:59:04;;;;;;;1999.90;999.90;;;4.00;99.90;;;;;;5093082;28;20072;-69
2024/01/13 11:01:31;;;;;;;1999.90;999.90;;;4.00;99.90;;;;;;5087696;28;20089;-69
2024/01/13 11:03:58;;;;;;;1999.90;999.90;;;4.00;99.90;;;;;;5088066;28;20872;-69
2024/01/13 11:06:25;;;;;;;1999.90;999.90;;;3.90;99.90;;;;;;5080387;28;20024;-69
2024/01/13 11:08:51;;;;;;;1999.90;999.90;;;4.00;99.90;;;;;;5082262;28;20028;-69
2024/01/13 11:11:25;;;;;;;1999.90;999.90;;;4.00;99.90;;;;;;5082819;28;20592;-67
2024/01/13 11:13:59;;;;;;;1999.90;999.90;;;4.00;99.90;;;;;;5056346;28;20028;-69
2024/01/13 11:16:28;;;;;;;1999.90;999.90;;;3.90;99.90;;;;;;5087630;28;20031;-69
2024/01/13 11:18:54;;;;;;;1999.90;999.90;;;3.90;99.90;;;;;;5083221;28;20031;-69
2024/01/13 11:21:32;;;;;;;1999.90;999.90;;;3.90;99.90;;;;;;5088773;28;20266;-69
2024/01/13 11:24:01;;;;;;;1999.90;999.90;;;3.90;99.90;;;;;;5081620;28;20093;-69
2024/01/13 11:26:43;;;;;;;1999.90;999.90;;;3.90;99.90;;;;;;5089960;28;20430;-69
2024/01/13 11:29:19;;;;;;;1999.90;999.90;;;3.90;99.90;;;;;;5065746;28;20020;-69
2024/01/13 11:31:48;;;;;;;1999.90;999.90;;;3.90;99.90;;;;;;5074933;28;20040;-69
2024/01/13 11:34:17;;;;;;;1999.90;999.90;;;3.90;99.90;;;;;;5089348;28;20027;-70
2024/01/13 11:36:50;;;;;;;1999.90;999.90;;;3.90;99.90;;;;;;5067894;28;20447;-69
2024/01/13 11:39:20;;;;;;;1999.90;999.90;;;3.90;99.90;;;;;;5085030;28;20461;-67
2024/01/13 11:41:50;;;;;;;1999.90;999.90;;;4.00;99.90;;;;;;5092303;28;20028;-70
2024/01/13 11:44:43;;;;;;;1999.90;999.90;;;4.00;99.90;;;;;;5088539;28;20081;-69
2024/01/13 11:47:10;;;;;;;1999.90;999.90;;;4.10;99.90;;;;;;5086437;28;20024;-69
2024/01/13 11:49:45;;;;;;;1999.90;999.90;;;4.20;99.90;;;;;;5067811;28;20427;-69
2024/01/13 11:52:11;;;;;;;1999.90;999.90;;;4.30;99.90;;;;;;5084780;28;20032;-69
2024/01/13 11:54:39;;;;;;;1999.90;999.90;;;4.30;99.90;;;;;;5085308;28;20036;-69
2024/01/13 11:57:08;;;;;;;1999.90;999.90;;;4.40;99.90;;;;;;5084403;28;20032;-69
2024/01/13 11:59:34;;;;;;;1999.90;999.90;;;4.40;99.90;;;;;;5088366;28;20032;-69
2024/01/13 12:02:00;;;;;;;1999.90;999.90;;;4.40;99.90;;;;;;5088672;28;20035;-69
2024/01/13 12:04:28;;;;;;;1999.90;999.90;;;4.50;99.90;;;;;;5092029;28;20038;-70